Snoqualmie River: Snoqualmie Falls station

back to: Snoqualmie river
Snoqualmie Falls station Summary - (NOAA Hydrograph: SQUW1)
flood stage: 12.88 ft
Latest reading:
Sun08/09 06:10 am 3.2 ft 655 cfs (steady)
Past 24hr max:
Sat08/08 06:10 am 3.29 ft 691 cfs
Forecasted crests: (published Sat 08/08/20 08:36 am)
Mon08/17 05:00 pm 4.09 ft 1061 cfs

Snoqualmie Falls station Details

Latest Readings

Last 100 Readings:
Sun08/09 06:10 am 3.2 ft 655 cfs
Sun08/09 06:05 am 3.2 ft 655 cfs
Sun08/09 06:00 am 3.19 ft 651 cfs
Sun08/09 05:55 am 3.2 ft 655 cfs
Sun08/09 05:50 am 3.2 ft 655 cfs
Sun08/09 05:45 am 3.2 ft 655 cfs
Sun08/09 05:40 am 3.2 ft 655 cfs
Sun08/09 05:35 am 3.2 ft 655 cfs
Sun08/09 05:30 am 3.2 ft 655 cfs
Sun08/09 05:25 am 3.2 ft 655 cfs
Sun08/09 05:20 am 3.2 ft 655 cfs
Sun08/09 05:15 am 3.2 ft 655 cfs
Sun08/09 05:10 am 3.2 ft 655 cfs
Sun08/09 05:05 am 3.2 ft 655 cfs
Sun08/09 05:00 am 3.2 ft 655 cfs
Sun08/09 04:55 am 3.2 ft 655 cfs
Sun08/09 04:50 am 3.2 ft 655 cfs
Sun08/09 04:45 am 3.2 ft 655 cfs
Sun08/09 04:40 am 3.2 ft 655 cfs
Sun08/09 04:35 am 3.2 ft 655 cfs
Sun08/09 04:30 am 3.2 ft 655 cfs
Sun08/09 04:25 am 3.2 ft 655 cfs
Sun08/09 04:20 am 3.2 ft 655 cfs
Sun08/09 04:15 am 3.21 ft 659 cfs
Sun08/09 04:10 am 3.2 ft 655 cfs
Sun08/09 04:05 am 3.21 ft 659 cfs
Sun08/09 04:00 am 3.2 ft 655 cfs
Sun08/09 03:55 am 3.2 ft 655 cfs
Sun08/09 03:50 am 3.21 ft 659 cfs
Sun08/09 03:45 am 3.2 ft 655 cfs
Sun08/09 03:40 am 3.21 ft 659 cfs
Sun08/09 03:35 am 3.21 ft 659 cfs
Sun08/09 03:30 am 3.21 ft 659 cfs
Sun08/09 03:25 am 3.2 ft 655 cfs
Sun08/09 03:20 am 3.21 ft 659 cfs
Sun08/09 03:15 am 3.2 ft 655 cfs
Sun08/09 03:10 am 3.21 ft 659 cfs
Sun08/09 03:05 am 3.21 ft 659 cfs
Sun08/09 03:00 am 3.21 ft 659 cfs
Sun08/09 02:55 am 3.21 ft 659 cfs
Sun08/09 02:50 am 3.21 ft 659 cfs
Sun08/09 02:45 am 3.21 ft 659 cfs
Sun08/09 02:40 am 3.21 ft 659 cfs
Sun08/09 02:35 am 3.2 ft 655 cfs
Sun08/09 02:30 am 3.21 ft 659 cfs
Sun08/09 02:25 am 3.21 ft 659 cfs
Sun08/09 02:20 am 3.21 ft 659 cfs
Sun08/09 02:15 am 3.22 ft 663 cfs
Sun08/09 02:10 am 3.21 ft 659 cfs
Sun08/09 02:05 am 3.21 ft 659 cfs
Sun08/09 02:00 am 3.21 ft 659 cfs
Sun08/09 01:55 am 3.21 ft 659 cfs
Sun08/09 01:50 am 3.21 ft 659 cfs
Sun08/09 01:45 am 3.21 ft 659 cfs
Sun08/09 01:40 am 3.21 ft 659 cfs
Sun08/09 01:35 am 3.22 ft 663 cfs
Sun08/09 01:30 am 3.21 ft 659 cfs
Sun08/09 01:25 am 3.21 ft 659 cfs
Sun08/09 01:20 am 3.21 ft 659 cfs
Sun08/09 01:15 am 3.22 ft 663 cfs
Sun08/09 01:10 am 3.21 ft 659 cfs
Sun08/09 01:05 am 3.21 ft 659 cfs
Sun08/09 01:00 am 3.21 ft 659 cfs
Sun08/09 12:55 am 3.21 ft 659 cfs
Sun08/09 12:50 am 3.22 ft 663 cfs
Sun08/09 12:45 am 3.22 ft 663 cfs
Sun08/09 12:40 am 3.22 ft 663 cfs
Sun08/09 12:35 am 3.21 ft 659 cfs
Sun08/09 12:30 am 3.22 ft 663 cfs
Sun08/09 12:25 am 3.21 ft 659 cfs
Sun08/09 12:20 am 3.22 ft 663 cfs
Sun08/09 12:15 am 3.22 ft 663 cfs
Sun08/09 12:10 am 3.22 ft 663 cfs
Sun08/09 12:05 am 3.22 ft 663 cfs
Sun08/09 12:00 am 3.22 ft 663 cfs
Sat08/08 11:55 pm 3.22 ft 663 cfs
Sat08/08 11:50 pm 3.22 ft 663 cfs
Sat08/08 11:45 pm 3.22 ft 663 cfs
Sat08/08 11:40 pm 3.22 ft 663 cfs
Sat08/08 11:35 pm 3.22 ft 663 cfs
Sat08/08 11:30 pm 3.22 ft 663 cfs
Sat08/08 11:25 pm 3.22 ft 663 cfs
Sat08/08 11:20 pm 3.22 ft 663 cfs
Sat08/08 11:15 pm 3.22 ft 663 cfs
Sat08/08 11:10 pm 3.23 ft 667 cfs
Sat08/08 11:05 pm 3.22 ft 663 cfs
Sat08/08 11:00 pm 3.22 ft 663 cfs
Sat08/08 10:55 pm 3.23 ft 667 cfs
Sat08/08 10:50 pm 3.23 ft 667 cfs
Sat08/08 10:45 pm 3.22 ft 663 cfs
Sat08/08 10:40 pm 3.22 ft 663 cfs
Sat08/08 10:35 pm 3.23 ft 667 cfs
Sat08/08 10:30 pm 3.22 ft 663 cfs
Sat08/08 10:25 pm 3.23 ft 667 cfs
Sat08/08 10:20 pm 3.22 ft 663 cfs
Sat08/08 10:15 pm 3.23 ft 667 cfs
Sat08/08 10:10 pm 3.23 ft 667 cfs
Sat08/08 10:05 pm 3.23 ft 667 cfs
Sat08/08 10:00 pm 3.23 ft 667 cfs
Sat08/08 09:55 pm 3.22 ft 663 cfs

Latest Forecasts

Currently Forecasted Readings:
Sat08/08 11:00 am 3.24 ft 672 cfs
Sat08/08 05:00 pm 3.19 ft 649 cfs
Sat08/08 11:00 pm 3.14 ft 631 cfs
Sun08/09 05:00 am 3.1 ft 615 cfs
Sun08/09 11:00 am 3.06 ft 601 cfs
Sun08/09 05:00 pm 3.03 ft 590 cfs
Sun08/09 11:00 pm 3.02 ft 583 cfs
Mon08/10 05:00 am 2.99 ft 575 cfs
Mon08/10 11:00 am 2.96 ft 564 cfs
Mon08/10 05:00 pm 2.94 ft 556 cfs
Mon08/10 11:00 pm 2.93 ft 551 cfs
Tue08/11 05:00 am 2.91 ft 545 cfs
Tue08/11 11:00 am 2.89 ft 537 cfs
Tue08/11 05:00 pm 2.87 ft 530 cfs
Tue08/11 11:00 pm 2.86 ft 525 cfs
Wed08/12 05:00 am 2.84 ft 519 cfs
Wed08/12 11:00 am 2.83 ft 514 cfs
Wed08/12 05:00 pm 2.81 ft 507 cfs
Wed08/12 11:00 pm 2.8 ft 503 cfs
Thu08/13 05:00 am 2.79 ft 500 cfs
Thu08/13 11:00 am 2.77 ft 494 cfs
Thu08/13 05:00 pm 2.76 ft 491 cfs
Thu08/13 11:00 pm 2.76 ft 491 cfs
Fri08/14 05:00 am 2.76 ft 489 cfs
Fri08/14 11:00 am 2.75 ft 485 cfs
Fri08/14 05:00 pm 2.74 ft 482 cfs
Fri08/14 11:00 pm 2.73 ft 480 cfs
Sat08/15 05:00 am 2.73 ft 477 cfs
Sat08/15 11:00 am 2.72 ft 475 cfs
Sat08/15 05:00 pm 2.71 ft 473 cfs
Sat08/15 11:00 pm 2.71 ft 473 cfs
Sun08/16 05:00 am 2.79 ft 501 cfs
Sun08/16 11:00 am 2.87 ft 529 cfs
Sun08/16 05:00 pm 2.97 ft 567 cfs
Sun08/16 11:00 pm 3.46 ft 759 cfs
Mon08/17 05:00 am 3.98 ft 995 cfs
Mon08/17 11:00 am 4.08 ft 1051 cfs
Mon08/17 05:00 pm 4.09 ft 1061 cfs
Mon08/17 11:00 pm 4.04 ft 1030 cfs
Tue08/18 05:00 am 3.73 ft 879 cfs

Snoqualmie River flood gauge data supplied by the
National Weather Service Northwest River Forecast Center.

Sign up for Floodzilla alerts.